Time;durP1;ratioP1;P1;durP2;ratioP2;P2;SDS_P1;SDS_P2;PMS_P1;PMS_P2;Temp;Humidity;BMP_temperature;BMP_pressure;BME280_temperature;BME280_humidity;BME280_pressure;Samples;Min_cycle;Max_cycle;Signal;HPM_P1;HPM_P2
2022/11/19 00:01:11;;;;;;;9.07;8.37;;;9.50;99.90;;;;;;5034974;28;20187;-68
2022/11/19 00:03:38;;;;;;;11.97;9.23;;;9.50;99.90;;;;;;5035324;28;20185;-68
2022/11/19 00:06:09;;;;;;;9.73;8.33;;;9.50;99.90;;;;;;5055063;28;20578;-68
2022/11/19 00:08:34;;;;;;;9.43;8.60;;;9.50;99.90;;;;;;5053391;28;20179;-68
2022/11/19 00:11:09;;;;;;;9.47;8.57;;;9.50;99.90;;;;;;5034671;28;20183;-67
2022/11/19 00:13:35;;;;;;;9.93;9.03;;;9.50;99.90;;;;;;5037346;28;20171;-68
2022/11/19 00:16:09;;;;;;;10.03;8.40;;;9.50;99.90;;;;;;5054655;28;20224;-69
2022/11/19 00:18:35;;;;;;;11.10;9.20;;;9.50;99.90;;;;;;5051469;28;20202;-69
2022/11/19 00:21:03;;;;;;;9.23;8.33;;;9.50;99.90;;;;;;5034508;28;20657;-68
2022/11/19 00:23:28;;;;;;;9.33;8.00;;;9.50;99.90;;;;;;5036568;28;20217;-69
2022/11/19 00:25:54;;;;;;;9.10;8.20;;;9.50;99.90;;;;;;5054652;28;20231;-68
2022/11/19 00:28:19;;;;;;;11.03;8.03;;;9.50;99.90;;;;;;5054480;28;20178;-68
2022/11/19 00:30:45;;;;;;;8.73;7.83;;;9.50;99.90;;;;;;5034347;28;20184;-68
2022/11/19 00:33:11;;;;;;;8.37;7.73;;;9.50;99.90;;;;;;5034774;28;20215;-68
2022/11/19 00:35:36;;;;;;;9.03;8.30;;;9.60;99.90;;;;;;5053250;28;20749;-68
2022/11/19 00:38:02;;;;;;;9.67;8.67;;;9.50;99.90;;;;;;5054571;28;20217;-69
2022/11/19 00:40:27;;;;;;;9.13;8.23;;;9.50;99.90;;;;;;5036736;28;20554;-68
2022/11/19 00:45:37;;;;;;;8.97;8.27;;;9.50;99.90;;;;;;5053151;28;20597;-68
2022/11/19 00:48:03;;;;;;;8.93;8.23;;;9.50;99.90;;;;;;5054463;28;20253;-69
2022/11/19 00:50:29;;;;;;;14.80;8.30;;;9.50;99.90;;;;;;5035391;28;20245;-68
2022/11/19 00:52:54;;;;;;;9.07;8.27;;;9.40;99.90;;;;;;5034288;28;20258;-69
2022/11/19 00:55:20;;;;;;;9.07;8.17;;;9.40;99.90;;;;;;5050301;28;20203;-68
2022/11/19 00:57:45;;;;;;;14.67;8.50;;;9.50;99.90;;;;;;5054190;28;20619;-68
2022/11/19 01:00:11;;;;;;;9.47;8.37;;;9.40;99.90;;;;;;5039412;28;20183;-69
2022/11/19 01:02:37;;;;;;;10.07;9.13;;;9.40;99.90;;;;;;5033277;28;20572;-69
2022/11/19 01:05:03;;;;;;;9.40;8.50;;;9.50;99.90;;;;;;5047286;28;20210;-69
2022/11/19 01:07:29;;;;;;;9.10;8.17;;;9.40;99.90;;;;;;5053986;28;20207;-69
2022/11/19 01:09:54;;;;;;;10.47;9.33;;;9.50;99.90;;;;;;5041458;28;20267;-68
2022/11/19 01:12:20;;;;;;;11.17;10.17;;;9.50;99.90;;;;;;5032425;28;20179;-68
2022/11/19 01:14:45;;;;;;;9.97;8.97;;;9.50;99.90;;;;;;5043856;28;20214;-69
2022/11/19 01:17:11;;;;;;;13.07;9.10;;;9.60;99.90;;;;;;5054074;28;20240;-69
2022/11/19 01:19:36;;;;;;;10.80;9.70;;;9.60;99.90;;;;;;5043975;28;20179;-69
2022/11/19 01:22:02;;;;;;;9.23;8.30;;;9.50;99.90;;;;;;5033768;28;20179;-69
2022/11/19 01:24:27;;;;;;;10.93;9.83;;;9.50;99.90;;;;;;5040817;28;20301;-69
2022/11/19 01:26:53;;;;;;;10.87;8.77;;;9.50;99.90;;;;;;5053498;28;20203;-69
2022/11/19 01:29:19;;;;;;;11.40;7.57;;;9.50;99.90;;;;;;5046435;28;20176;-68
2022/11/19 01:31:44;;;;;;;11.03;9.77;;;9.50;99.90;;;;;;5032273;28;20266;-69
2022/11/19 01:34:10;;;;;;;11.77;8.07;;;9.50;99.90;;;;;;5039350;28;20640;-69
2022/11/19 01:36:35;;;;;;;9.33;8.53;;;9.40;99.90;;;;;;5053579;28;20181;-69
2022/11/19 01:39:01;;;;;;;10.13;9.13;;;9.50;99.90;;;;;;5048939;28;20186;-69
2022/11/19 01:41:31;;;;;;;10.67;9.50;;;9.50;99.90;;;;;;5033178;28;20254;-69
2022/11/19 01:44:03;;;;;;;10.50;9.37;;;9.50;99.90;;;;;;5037168;28;20273;-69
2022/11/19 01:46:36;;;;;;;9.70;8.80;;;9.50;99.90;;;;;;5053255;28;20211;-69
2022/11/19 01:49:07;;;;;;;11.47;10.37;;;9.50;99.90;;;;;;5049006;28;20663;-69
2022/11/19 01:51:42;;;;;;;9.50;8.63;;;9.50;99.90;;;;;;5031940;28;20183;-69
2022/11/19 01:54:16;;;;;;;10.33;9.27;;;9.50;99.90;;;;;;5036669;28;20178;-69
2022/11/19 01:56:42;;;;;;;10.43;9.53;;;9.50;99.90;;;;;;5051955;28;20174;-69
2022/11/19 01:59:13;;;;;;;10.80;9.60;;;9.50;99.90;;;;;;5048057;28;20183;-69
2022/11/19 02:01:38;;;;;;;11.93;9.27;;;9.50;99.90;;;;;;5033101;28;20205;-69
2022/11/19 02:04:06;;;;;;;11.93;9.20;;;9.50;99.90;;;;;;5037307;28;20277;-68
2022/11/19 02:06:33;;;;;;;11.30;10.20;;;9.40;99.90;;;;;;5052904;28;20210;-69
2022/11/19 02:08:58;;;;;;;13.67;9.93;;;9.40;99.90;;;;;;5049424;28;20270;-69
2022/11/19 02:11:42;;;;;;;10.87;9.43;;;9.40;99.90;;;;;;5031415;28;20697;-69
2022/11/19 02:14:45;;;;;;;12.60;11.27;;;9.40;99.90;;;;;;5037229;28;20175;-69
2022/11/19 02:17:38;;;;;;;11.80;10.23;;;9.50;99.90;;;;;;5052108;28;20194;-69
2022/11/19 02:20:22;;;;;;;11.03;9.90;;;9.40;99.90;;;;;;5040120;28;20249;-68
2022/11/19 02:23:15;;;;;;;10.10;9.20;;;9.20;99.90;;;;;;5032675;28;20637;-68
2022/11/19 02:26:11;;;;;;;10.53;9.53;;;9.00;99.90;;;;;;5049725;28;20211;-68
2022/11/19 02:28:58;;;;;;;9.47;8.67;;;8.70;99.90;;;;;;5052278;28;20175;-69
2022/11/19 02:31:30;;;;;;;10.00;9.10;;;8.60;99.90;;;;;;5032403;28;20258;-68
2022/11/19 02:34:03;;;;;;;9.70;8.90;;;8.40;99.90;;;;;;5035109;28;20221;-68
2022/11/19 02:36:46;;;;;;;9.40;8.50;;;8.40;99.90;;;;;;5052329;28;20194;-68
2022/11/19 02:39:40;;;;;;;8.80;8.10;;;8.30;99.90;;;;;;5046005;28;20236;-68
2022/11/19 02:42:17;;;;;;;9.27;8.47;;;8.30;99.90;;;;;;5032289;28;20183;-68
2022/11/19 02:45:06;;;;;;;8.93;8.20;;;8.30;99.90;;;;;;5032621;28;20257;-68
2022/11/19 02:47:54;;;;;;;8.90;8.03;;;8.20;99.90;;;;;;5029011;28;20223;-68
2022/11/19 02:50:29;;;;;;;9.30;8.40;;;8.10;99.90;;;;;;5041211;28;20747;-68
2022/11/19 02:52:55;;;;;;;8.77;8.10;;;7.90;99.90;;;;;;5052255;28;20585;-68
2022/11/19 02:55:22;;;;;;;8.87;8.03;;;7.80;99.90;;;;;;5037574;28;20238;-68
2022/11/19 02:57:57;;;;;;;9.67;8.90;;;7.70;99.90;;;;;;5031928;28;20237;-68
2022/11/19 03:06:19;;;;;;;9.53;8.73;;;7.70;99.90;;;;;;5049935;28;20209;-68
2022/11/19 03:08:46;;;;;;;9.53;8.73;;;7.70;99.90;;;;;;5051530;28;20174;-68
2022/11/19 03:11:22;;;;;;;10.23;9.10;;;7.60;99.90;;;;;;5031561;28;20183;-68
2022/11/19 03:17:03;;;;;;;9.67;8.67;;;7.50;99.90;;;;;;5051729;28;20758;-68
2022/11/19 03:19:50;;;;;;;10.53;8.90;;;7.50;99.90;;;;;;5045443;28;20171;-68
2022/11/19 03:22:38;;;;;;;9.07;8.17;;;7.40;99.90;;;;;;5031877;28;20187;-68
2022/11/19 03:25:24;;;;;;;10.83;8.87;;;7.30;99.90;;;;;;5042476;28;20199;-68
2022/11/19 03:27:54;;;;;;;9.57;8.77;;;7.30;99.90;;;;;;5050161;28;20186;-68
2022/11/19 03:30:20;;;;;;;10.40;9.30;;;7.20;99.90;;;;;;5038488;28;20529;-68
2022/11/19 03:33:05;;;;;;;9.77;8.97;;;7.20;99.90;;;;;;5031675;28;20179;-68
2022/11/19 03:35:48;;;;;;;11.77;9.07;;;7.10;99.90;;;;;;5040855;28;20190;-68
2022/11/19 03:38:28;;;;;;;9.63;8.73;;;7.10;99.90;;;;;;5030331;28;20179;-68
2022/11/19 03:40:56;;;;;;;9.13;8.33;;;7.10;99.90;;;;;;5031573;28;20222;-68
2022/11/19 03:43:26;;;;;;;9.47;8.67;;;7.10;99.90;;;;;;5030254;28;20629;-68
2022/11/19 03:45:54;;;;;;;9.10;8.30;;;7.00;99.90;;;;;;5032241;28;20195;-68
2022/11/19 03:48:22;;;;;;;8.50;7.73;;;7.00;99.90;;;;;;5031349;28;20644;-68
2022/11/19 03:50:56;;;;;;;8.73;7.93;;;6.90;99.90;;;;;;5047087;28;20183;-68
2022/11/19 03:53:22;;;;;;;8.20;7.57;;;6.90;99.90;;;;;;5051429;28;20179;-68
2022/11/19 03:55:56;;;;;;;7.80;7.10;;;6.90;99.90;;;;;;5034240;28;20210;-68
2022/11/19 03:58:26;;;;;;;7.50;6.90;;;6.80;99.90;;;;;;5031467;28;20599;-68
2022/11/19 04:00:52;;;;;;;7.90;7.17;;;6.70;99.90;;;;;;5044432;28;20178;-68
2022/11/19 04:03:18;;;;;;;9.40;7.87;;;6.70;99.90;;;;;;5049962;28;20215;-68
2022/11/19 04:05:43;;;;;;;8.33;7.53;;;6.50;99.90;;;;;;5035675;28;20247;-68
2022/11/19 04:08:09;;;;;;;7.90;7.30;;;6.40;99.90;;;;;;5031238;28;20713;-68
2022/11/19 04:10:35;;;;;;;8.63;7.83;;;6.30;99.90;;;;;;5044223;28;20216;-68
2022/11/19 04:13:00;;;;;;;8.63;7.63;;;6.20;99.90;;;;;;5051014;28;20571;-68
2022/11/19 04:15:26;;;;;;;7.53;6.97;;;6.20;99.90;;;;;;5039163;28;20223;-68
2022/11/19 04:17:51;;;;;;;8.80;8.10;;;6.10;99.90;;;;;;5032170;28;20589;-68
2022/11/19 04:20:17;;;;;;;9.60;8.80;;;6.10;99.90;;;;;;5050844;28;20220;-68
2022/11/19 04:22:43;;;;;;;11.27;8.97;;;6.00;99.90;;;;;;5051113;28;20167;-68
2022/11/19 04:25:09;;;;;;;10.67;9.13;;;6.00;99.90;;;;;;5031067;28;20722;-68
2022/11/19 04:27:35;;;;;;;9.47;8.17;;;6.00;99.90;;;;;;5029838;28;20562;-68
2022/11/19 04:30:00;;;;;;;9.33;8.07;;;6.10;99.90;;;;;;5049251;28;20209;-68
2022/11/19 04:32:26;;;;;;;11.93;9.63;;;6.10;99.90;;;;;;5051119;28;20195;-68
2022/11/19 04:34:52;;;;;;;9.07;8.27;;;6.10;99.90;;;;;;5033396;28;20246;-68
2022/11/19 04:37:17;;;;;;;9.57;8.77;;;6.00;99.90;;;;;;5031106;28;20172;-68
2022/11/19 04:39:43;;;;;;;18.40;9.60;;;6.00;99.90;;;;;;5047142;28;20185;-68
2022/11/19 04:42:09;;;;;;;12.97;8.70;;;6.10;99.90;;;;;;5053238;28;20197;-68
2022/11/19 04:44:34;;;;;;;11.77;9.23;;;6.10;99.90;;;;;;5039780;28;20623;-68
2022/11/19 04:47:00;;;;;;;10.77;9.77;;;6.10;99.90;;;;;;5033101;28;20661;-68
2022/11/19 04:49:25;;;;;;;9.77;8.77;;;6.20;99.90;;;;;;5047721;28;20181;-68
2022/11/19 04:51:51;;;;;;;9.67;8.73;;;6.20;99.90;;;;;;5054276;28;20257;-69
2022/11/19 04:54:17;;;;;;;9.53;8.70;;;6.00;99.90;;;;;;5040747;28;20175;-68
2022/11/19 04:56:42;;;;;;;13.97;8.77;;;6.10;99.90;;;;;;5033213;28;20275;-68
2022/11/19 04:59:08;;;;;;;11.53;9.17;;;6.00;99.90;;;;;;5043430;28;20193;-68
2022/11/19 05:01:34;;;;;;;10.73;7.53;;;6.10;99.90;;;;;;5052980;28;20201;-68
2022/11/19 05:03:59;;;;;;;14.50;9.53;;;6.10;99.90;;;;;;5044490;28;20175;-68
2022/11/19 05:06:25;;;;;;;9.27;8.33;;;6.10;99.90;;;;;;5034100;28;20207;-68
2022/11/19 05:08:50;;;;;;;9.70;8.73;;;6.00;99.90;;;;;;5041122;28;20182;-68
2022/11/19 05:11:16;;;;;;;9.93;9.03;;;6.10;99.90;;;;;;5052607;28;20182;-68
2022/11/19 05:13:41;;;;;;;9.17;8.27;;;6.10;99.90;;;;;;5047050;28;20611;-68
2022/11/19 05:16:07;;;;;;;9.60;8.43;;;6.10;99.90;;;;;;5033768;28;20234;-68
2022/11/19 05:18:33;;;;;;;14.17;10.07;;;6.10;99.90;;;;;;5038194;28;20555;-68
2022/11/19 05:20:58;;;;;;;9.90;8.93;;;6.10;99.90;;;;;;5053440;28;20546;-68
2022/11/19 05:23:24;;;;;;;12.87;9.00;;;6.00;99.90;;;;;;5049627;28;20175;-68
2022/11/19 05:25:50;;;;;;;14.10;10.73;;;6.00;99.90;;;;;;5033599;28;20203;-68
2022/11/19 05:28:16;;;;;;;12.20;10.17;;;6.00;99.90;;;;;;5035758;28;20164;-68
2022/11/19 05:30:41;;;;;;;11.03;9.30;;;6.00;99.90;;;;;;5052201;28;20207;-68
2022/11/19 05:33:07;;;;;;;9.77;8.80;;;6.00;99.90;;;;;;5051788;28;20178;-68
2022/11/19 05:35:32;;;;;;;12.17;8.17;;;5.90;99.90;;;;;;5033600;28;20188;-68
2022/11/19 05:37:58;;;;;;;9.20;7.97;;;6.00;99.90;;;;;;5033402;28;20454;-68
2022/11/19 05:40:24;;;;;;;14.13;9.27;;;6.00;99.90;;;;;;5052686;28;20174;-68
2022/11/19 05:42:49;;;;;;;8.10;7.40;;;6.00;99.90;;;;;;5053457;28;20175;-68
2022/11/19 05:45:15;;;;;;;7.13;6.63;;;6.00;99.90;;;;;;5034296;28;20227;-67
2022/11/19 05:47:41;;;;;;;7.17;6.77;;;6.00;99.90;;;;;;5033590;28;20272;-67
2022/11/19 05:50:07;;;;;;;6.30;5.90;;;5.90;99.90;;;;;;5049872;28;20175;-67
2022/11/19 05:52:33;;;;;;;5.83;5.43;;;5.80;99.90;;;;;;5052356;28;20167;-67
2022/11/19 05:54:58;;;;;;;6.90;6.40;;;5.80;99.90;;;;;;5036576;28;20202;-67
2022/11/19 05:57:24;;;;;;;6.20;5.80;;;5.70;99.90;;;;;;5033305;28;20175;-67
2022/11/19 05:59:49;;;;;;;6.53;6.17;;;5.70;99.90;;;;;;5047123;28;20187;-67
2022/11/19 06:02:15;;;;;;;7.03;6.53;;;5.70;99.90;;;;;;5053127;28;20194;-67
2022/11/19 06:04:41;;;;;;;6.50;5.90;;;5.70;99.90;;;;;;5039244;28;20235;-67
2022/11/19 06:07:06;;;;;;;6.93;6.50;;;5.70;99.90;;;;;;5031698;28;20221;-67
2022/11/19 06:09:32;;;;;;;6.53;6.03;;;5.70;99.90;;;;;;5044274;28;20182;-67
2022/11/19 06:11:57;;;;;;;7.67;7.17;;;5.70;99.90;;;;;;5052787;28;20170;-67
2022/11/19 06:14:24;;;;;;;7.67;7.17;;;5.70;99.90;;;;;;5040454;28;20194;-67
2022/11/19 06:16:55;;;;;;;6.50;6.00;;;5.70;99.90;;;;;;5032937;28;20175;-67
2022/11/19 06:19:21;;;;;;;7.73;7.00;;;5.60;99.90;;;;;;5042313;28;20185;-67
2022/11/19 06:21:47;;;;;;;6.53;6.10;;;5.60;99.90;;;;;;5052582;28;20174;-67
2022/11/19 06:24:13;;;;;;;6.90;6.40;;;5.60;99.90;;;;;;5043024;28;20717;-67
2022/11/19 06:26:39;;;;;;;7.00;6.57;;;5.60;99.90;;;;;;5032717;28;20286;-67
2022/11/19 06:29:05;;;;;;;8.03;7.43;;;5.60;99.90;;;;;;5039746;28;20274;-67
2022/11/19 06:31:32;;;;;;;7.20;6.70;;;5.60;99.90;;;;;;5052543;28;20171;-67
2022/11/19 06:33:58;;;;;;;7.37;6.87;;;5.60;99.90;;;;;;5045188;28;20183;-67
2022/11/19 06:36:23;;;;;;;7.10;6.53;;;5.70;99.90;;;;;;5032458;28;20684;-67
2022/11/19 06:38:49;;;;;;;7.50;6.80;;;5.70;99.90;;;;;;5036025;28;20179;-68
2022/11/19 06:41:15;;;;;;;8.37;7.57;;;5.70;99.90;;;;;;5051914;28;20205;-67
2022/11/19 06:43:41;;;;;;;8.43;7.67;;;5.70;99.90;;;;;;5046685;28;20704;-67
2022/11/19 06:46:08;;;;;;;9.37;8.57;;;5.60;99.90;;;;;;5030835;28;20588;-67
2022/11/19 06:48:33;;;;;;;9.00;8.27;;;5.50;99.90;;;;;;5035043;28;20672;-67
2022/11/19 06:51:00;;;;;;;10.23;9.13;;;5.40;99.90;;;;;;5051756;28;20167;-67
2022/11/19 06:53:26;;;;;;;10.60;9.63;;;5.30;99.90;;;;;;5050011;28;20197;-67
2022/11/19 06:56:00;;;;;;;10.20;9.03;;;5.20;99.90;;;;;;5041719;28;20203;-67
2022/11/19 06:58:26;;;;;;;10.37;9.27;;;5.10;99.90;;;;;;5035276;28;20617;-67
2022/11/19 07:00:52;;;;;;;11.07;9.60;;;5.10;99.90;;;;;;5031786;28;20548;-67
2022/11/19 07:03:18;;;;;;;12.43;11.20;;;5.00;99.90;;;;;;5038957;28;20183;-67
2022/11/19 07:05:43;;;;;;;12.47;11.27;;;4.90;99.90;;;;;;5037084;28;20203;-67
2022/11/19 07:08:09;;;;;;;13.67;11.10;;;4.80;99.90;;;;;;5050942;28;20167;-67
2022/11/19 07:10:35;;;;;;;13.80;10.70;;;4.70;99.90;;;;;;5046557;28;20637;-67
2022/11/19 07:13:00;;;;;;;11.83;10.60;;;4.70;99.90;;;;;;5029757;28;20430;-67
2022/11/19 07:15:26;;;;;;;12.83;10.90;;;4.60;99.90;;;;;;5034844;28;20198;-66
2022/11/19 07:17:53;;;;;;;13.37;11.27;;;4.50;99.90;;;;;;5050160;28;20212;-67
2022/11/19 07:20:19;;;;;;;11.57;9.73;;;4.50;99.90;;;;;;5048487;28;20644;-66
2022/11/19 07:22:45;;;;;;;11.33;10.10;;;4.40;99.90;;;;;;5031856;28;20580;-67
2022/11/19 07:25:13;;;;;;;15.27;11.83;;;4.40;99.90;;;;;;5031841;28;20233;-67
2022/11/19 07:27:42;;;;;;;17.13;10.63;;;4.40;99.90;;;;;;5051486;28;20264;-67
2022/11/19 07:30:08;;;;;;;12.67;10.33;;;4.40;99.90;;;;;;5049955;28;20167;-67
2022/11/19 07:32:34;;;;;;;12.53;11.33;;;4.40;99.90;;;;;;5031374;28;20621;-67
2022/11/19 07:35:00;;;;;;;17.43;11.97;;;4.40;99.90;;;;;;5049322;28;20218;-66
2022/11/19 07:37:26;;;;;;;14.37;11.40;;;4.40;99.90;;;;;;5051359;28;20201;-67
2022/11/19 07:39:51;;;;;;;14.93;9.93;;;4.30;99.90;;;;;;5037961;28;20179;-67
2022/11/19 07:45:02;;;;;;;17.43;13.73;;;4.30;99.90;;;;;;5051323;28;20206;-67
2022/11/19 07:47:27;;;;;;;17.73;12.10;;;4.30;99.90;;;;;;5051277;28;20206;-66
2022/11/19 07:49:53;;;;;;;15.13;12.27;;;4.40;99.90;;;;;;5032391;28;20691;-68
2022/11/19 07:52:20;;;;;;;12.97;11.73;;;4.30;99.90;;;;;;5031382;28;20534;-67
2022/11/19 07:54:45;;;;;;;19.97;11.63;;;4.30;99.90;;;;;;5045890;28;20186;-67
2022/11/19 07:57:11;;;;;;;19.53;12.33;;;4.30;99.90;;;;;;5051150;28;20163;-66
2022/11/19 07:59:37;;;;;;;18.60;12.63;;;4.30;99.90;;;;;;5050391;28;20273;-67
2022/11/19 08:02:02;;;;;;;15.37;12.60;;;4.30;99.90;;;;;;5049721;28;20179;-66
2022/11/19 08:04:28;;;;;;;18.07;13.70;;;4.30;99.90;;;;;;5049513;28;20252;-66
2022/11/19 08:06:54;;;;;;;15.00;12.73;;;4.30;99.90;;;;;;5049673;28;20202;-67
2022/11/19 08:09:19;;;;;;;16.47;13.33;;;4.40;99.90;;;;;;5037995;28;20292;-67
2022/11/19 08:11:45;;;;;;;16.17;12.03;;;4.40;99.90;;;;;;5031259;28;20171;-68
2022/11/19 08:14:12;;;;;;;18.87;14.87;;;4.40;99.90;;;;;;5030048;28;20230;-66
2022/11/19 08:19:22;;;;;;;16.07;13.77;;;4.50;99.90;;;;;;5053877;28;20182;-67
2022/11/19 08:21:47;;;;;;;18.67;14.67;;;4.40;99.90;;;;;;5053424;28;20178;-66
2022/11/19 08:24:15;;;;;;;19.00;13.57;;;4.40;99.90;;;;;;5052868;28;20561;-66
2022/11/19 08:26:41;;;;;;;19.30;14.20;;;4.50;99.90;;;;;;5054836;28;20564;-66
2022/11/19 08:29:07;;;;;;;19.97;13.93;;;4.50;99.90;;;;;;5054094;28;20202;-67
2022/11/19 08:31:33;;;;;;;17.40;12.73;;;4.60;99.90;;;;;;5054841;28;20232;-67
2022/11/19 08:34:00;;;;;;;18.70;13.97;;;4.60;99.90;;;;;;5047818;28;20179;-66
2022/11/19 08:36:26;;;;;;;17.40;13.87;;;4.60;99.90;;;;;;5053444;28;20195;-66
2022/11/19 08:38:54;;;;;;;17.17;12.13;;;4.70;99.90;;;;;;5052608;28;20183;-67
2022/11/19 08:44:04;;;;;;;16.90;12.20;;;4.80;99.90;;;;;;5054050;28;20213;-66
2022/11/19 08:46:30;;;;;;;18.43;13.03;;;4.80;99.90;;;;;;5053072;28;20636;-66
2022/11/19 08:48:55;;;;;;;18.03;14.30;;;4.90;99.90;;;;;;5045542;28;20260;-67
2022/11/19 08:51:21;;;;;;;17.00;13.20;;;4.90;99.90;;;;;;5034574;28;20594;-67
2022/11/19 08:53:46;;;;;;;17.50;12.87;;;5.00;99.90;;;;;;5034841;28;20238;-68
2022/11/19 08:56:12;;;;;;;19.43;12.87;;;4.90;99.90;;;;;;5033062;28;20199;-66
2022/11/19 08:58:37;;;;;;;17.77;12.30;;;4.90;99.90;;;;;;5038716;28;20231;-66
2022/11/19 09:01:10;;;;;;;18.80;13.13;;;4.80;99.90;;;;;;5053905;28;20636;-66
2022/11/19 09:03:36;;;;;;;14.00;12.03;;;4.80;99.90;;;;;;5052260;28;20179;-66
2022/11/19 09:06:02;;;;;;;16.77;12.27;;;4.80;99.90;;;;;;5050507;28;20229;-68
2022/11/19 09:08:28;;;;;;;15.30;12.73;;;4.90;99.90;;;;;;5050979;28;20180;-67
2022/11/19 09:10:53;;;;;;;20.17;13.57;;;4.90;99.90;;;;;;5033886;28;20195;-67
2022/11/19 09:13:19;;;;;;;19.47;13.03;;;4.90;99.90;;;;;;5034854;28;20700;-67
2022/11/19 09:15:47;;;;;;;17.10;11.97;;;5.00;99.90;;;;;;5052543;28;20207;-67
2022/11/19 09:18:13;;;;;;;15.43;13.63;;;5.00;99.90;;;;;;5052570;28;20571;-68
2022/11/19 09:20:39;;;;;;;16.40;11.80;;;5.00;99.90;;;;;;5053778;28;20254;-68
2022/11/19 09:23:05;;;;;;;13.83;11.73;;;5.00;99.90;;;;;;5053833;28;20171;-67
2022/11/19 09:25:32;;;;;;;16.00;11.57;;;5.10;99.90;;;;;;5052930;28;20269;-67
2022/11/19 09:27:58;;;;;;;12.17;10.93;;;5.10;99.90;;;;;;5053703;28;20170;-67
2022/11/19 09:30:23;;;;;;;14.27;12.97;;;5.00;99.90;;;;;;5039879;28;20544;-67
2022/11/19 09:32:49;;;;;;;16.40;12.40;;;5.10;99.90;;;;;;5052159;28;20297;-68
2022/11/19 09:35:15;;;;;;;14.43;11.63;;;5.10;99.90;;;;;;5036725;28;20196;-67
2022/11/19 09:37:41;;;;;;;16.97;12.53;;;5.20;99.90;;;;;;5039649;28;20607;-68
2022/11/19 09:40:08;;;;;;;15.93;11.07;;;5.20;99.90;;;;;;5051108;28;20198;-68
2022/11/19 09:43:40;;;;;;;17.67;11.43;;;5.30;99.90;;;;;;5053903;28;20240;-67
2022/11/19 09:46:05;;;;;;;18.60;12.13;;;5.30;99.90;;;;;;5011255;28;20200;-68
2022/11/19 09:48:34;;;;;;;14.37;11.10;;;5.40;99.90;;;;;;4994787;28;20195;-68
2022/11/19 09:51:13;;;;;;;14.33;10.83;;;5.40;99.90;;;;;;5018578;28;20179;-68
2022/11/19 09:53:51;;;;;;;14.03;11.73;;;5.40;99.90;;;;;;5033401;28;20171;-68
2022/11/19 09:56:49;;;;;;;10.97;9.90;;;5.30;99.90;;;;;;5051880;28;20672;-68
2022/11/19 09:59:35;;;;;;;11.90;10.50;;;5.10;99.90;;;;;;5043287;28;20183;-68
2022/11/19 10:02:02;;;;;;;12.67;11.37;;;5.10;99.90;;;;;;5033161;28;20220;-69
2022/11/19 10:04:32;;;;;;;13.03;10.70;;;5.00;99.90;;;;;;5041999;28;20233;-68
2022/11/19 10:07:10;;;;;;;11.57;10.40;;;5.10;99.90;;;;;;5051424;28;20280;-68
2022/11/19 10:09:50;;;;;;;10.53;9.53;;;5.20;99.90;;;;;;5041979;28;20178;-67
2022/11/19 10:12:22;;;;;;;14.80;11.13;;;5.20;99.90;;;;;;5031766;28;20233;-67
2022/11/19 10:15:17;;;;;;;12.77;11.53;;;5.20;99.90;;;;;;5043043;28;20210;-68
2022/11/19 10:18:22;;;;;;;12.93;10.77;;;5.20;99.90;;;;;;5051042;28;20277;-68
2022/11/19 10:20:56;;;;;;;13.83;10.50;;;5.10;99.90;;;;;;5031348;28;20183;-67
2022/11/19 10:23:48;;;;;;;15.77;13.23;;;5.10;99.90;;;;;;5032742;28;20195;-68
2022/11/19 10:26:17;;;;;;;13.80;10.40;;;5.20;99.90;;;;;;5050327;28;20258;-68
2022/11/19 10:29:11;;;;;;;19.70;14.60;;;5.20;99.90;;;;;;5051886;28;20975;-67
2022/11/19 10:31:42;;;;;;;14.33;10.73;;;5.20;99.90;;;;;;5051520;28;20586;-68
2022/11/19 10:34:26;;;;;;;12.90;11.23;;;5.10;99.90;;;;;;5045610;28;20621;-67
2022/11/19 10:37:03;;;;;;;13.90;10.20;;;5.10;99.90;;;;;;5032476;28;20175;-67
2022/11/19 10:39:41;;;;;;;13.67;9.97;;;5.10;99.90;;;;;;5031738;28;20175;-68
2022/11/19 10:42:35;;;;;;;12.07;10.93;;;5.20;99.90;;;;;;5032409;28;20574;-67
2022/11/19 10:45:17;;;;;;;14.30;11.20;;;5.20;99.90;;;;;;5031864;28;20217;-67
2022/11/19 10:48:19;;;;;;;15.53;10.53;;;5.20;99.90;;;;;;5032366;28;20203;-67
2022/11/19 10:50:45;;;;;;;11.60;10.30;;;5.10;99.90;;;;;;5038757;28;20554;-67
2022/11/19 10:53:13;;;;;;;12.73;10.77;;;5.10;99.90;;;;;;5031063;28;20178;-67
2022/11/19 10:55:56;;;;;;;12.40;10.73;;;5.10;99.90;;;;;;5051534;28;20239;-67
2022/11/19 10:58:43;;;;;;;12.03;10.77;;;5.20;99.90;;;;;;5051954;28;20174;-68
2022/11/19 11:01:22;;;;;;;13.77;10.33;;;5.30;99.90;;;;;;5050452;28;20182;-68
2022/11/19 11:03:57;;;;;;;12.23;10.73;;;5.30;99.90;;;;;;5047685;28;20196;-67
2022/11/19 11:06:22;;;;;;;12.83;10.57;;;5.40;99.90;;;;;;5030579;28;20218;-67
2022/11/19 11:08:53;;;;;;;15.63;12.37;;;5.40;99.90;;;;;;5030985;28;20171;-67
2022/11/19 11:14:50;;;;;;;14.77;10.93;;;5.40;99.90;;;;;;5030810;28;20249;-67
2022/11/19 11:16:58;;;;;;;11.87;10.27;;;5.50;99.90;;;;;;5050221;28;20186;-67
2022/11/19 11:19:24;;;;;;;12.70;9.23;;;5.40;99.90;;;;;;5049639;28;20270;-67
2022/11/19 11:21:54;;;;;;;11.97;9.60;;;5.40;99.90;;;;;;5050321;28;20206;-67
2022/11/19 11:24:20;;;;;;;10.53;9.57;;;5.40;99.90;;;;;;5050133;28;20291;-68
2022/11/19 11:26:46;;;;;;;9.50;8.60;;;5.30;99.90;;;;;;5047474;28;20237;-68
2022/11/19 11:29:11;;;;;;;13.17;10.60;;;5.30;99.90;;;;;;5030351;28;20180;-67
2022/11/19 11:31:41;;;;;;;12.33;10.83;;;5.30;99.90;;;;;;5030850;28;20232;-67
2022/11/19 11:34:26;;;;;;;12.00;10.67;;;5.40;99.90;;;;;;5050056;28;20189;-68
2022/11/19 11:36:52;;;;;;;12.83;10.17;;;5.40;99.90;;;;;;5049626;28;20273;-67
2022/11/19 11:39:38;;;;;;;12.33;10.37;;;5.50;99.90;;;;;;5049420;28;20186;-67
2022/11/19 11:42:11;;;;;;;10.90;9.80;;;5.60;99.90;;;;;;5048006;28;20179;-67
2022/11/19 11:44:47;;;;;;;10.50;9.50;;;5.70;99.90;;;;;;5039080;28;20286;-68
2022/11/19 11:47:25;;;;;;;11.83;10.63;;;5.70;99.90;;;;;;5050135;28;20252;-68
2022/11/19 11:50:30;;;;;;;10.97;9.93;;;5.70;99.90;;;;;;5048633;28;20185;-69
2022/11/19 11:52:59;;;;;;;10.07;9.07;;;5.80;99.90;;;;;;5005000;28;20259;-68
2022/11/19 11:55:24;;;;;;;10.10;8.03;;;5.90;99.90;;;;;;5009958;28;20295;-67
2022/11/19 11:58:02;;;;;;;8.80;8.10;;;5.90;99.90;;;;;;5003850;28;20192;-67
2022/11/19 12:00:41;;;;;;;11.07;9.93;;;5.90;99.90;;;;;;5037609;28;20214;-67
2022/11/19 12:03:12;;;;;;;10.17;9.30;;;5.90;99.90;;;;;;5040835;28;20510;-67
2022/11/19 12:05:41;;;;;;;10.40;9.27;;;6.00;99.90;;;;;;5054808;28;20293;-67
2022/11/19 12:08:11;;;;;;;10.67;9.57;;;6.00;99.90;;;;;;5045215;28;20278;-67
2022/11/19 12:11:05;;;;;;;9.50;8.63;;;6.10;99.90;;;;;;5047356;28;20205;-67
2022/11/19 12:13:56;;;;;;;9.80;8.90;;;6.00;99.90;;;;;;5052199;28;20186;-66
2022/11/19 12:16:38;;;;;;;8.53;7.73;;;6.00;99.90;;;;;;5035137;28;20196;-67
2022/11/19 12:19:27;;;;;;;10.33;8.70;;;6.00;99.90;;;;;;5033752;28;20183;-68
2022/11/19 12:22:14;;;;;;;9.20;8.47;;;6.00;99.90;;;;;;5022400;28;20203;-67
2022/11/19 12:24:55;;;;;;;10.00;9.00;;;6.00;99.90;;;;;;5033651;28;20345;-68
2022/11/19 12:27:40;;;;;;;9.93;9.00;;;6.10;99.90;;;;;;5046591;28;20238;-68
2022/11/19 12:30:18;;;;;;;10.23;8.83;;;6.10;99.90;;;;;;5049768;28;20183;-67
2022/11/19 12:32:55;;;;;;;12.70;10.17;;;6.10;99.90;;;;;;5034764;28;20175;-67
2022/11/19 12:35:39;;;;;;;9.03;8.33;;;6.00;99.90;;;;;;5049504;28;20223;-67
2022/11/19 12:38:17;;;;;;;10.00;9.00;;;5.90;99.90;;;;;;5033122;28;20185;-68
2022/11/19 12:41:04;;;;;;;10.10;9.10;;;5.90;99.90;;;;;;5033071;28;20175;-68
2022/11/19 12:43:54;;;;;;;10.63;8.67;;;5.90;99.90;;;;;;5034965;28;20175;-68
2022/11/19 12:46:25;;;;;;;9.97;9.10;;;5.90;99.90;;;;;;5045870;28;20198;-67
2022/11/19 12:48:59;;;;;;;9.67;7.57;;;5.90;99.90;;;;;;5043140;28;20179;-69
2022/11/19 12:51:34;;;;;;;9.57;8.67;;;5.90;99.90;;;;;;5044095;28;20624;-67
2022/11/19 12:53:59;;;;;;;10.80;9.73;;;5.80;99.90;;;;;;5054095;28;20181;-67
2022/11/19 12:56:57;;;;;;;10.00;9.10;;;5.80;99.90;;;;;;5042288;28;20199;-68
2022/11/19 12:59:42;;;;;;;10.07;9.07;;;5.90;99.90;;;;;;5032480;28;20188;-67
2022/11/19 13:02:20;;;;;;;10.30;9.27;;;5.90;99.90;;;;;;5032550;28;20183;-68
2022/11/19 13:04:59;;;;;;;9.47;8.37;;;5.90;99.90;;;;;;5034417;28;20672;-67
2022/11/19 13:07:38;;;;;;;11.40;10.20;;;5.90;99.90;;;;;;5032980;28;20665;-68
2022/11/19 13:10:12;;;;;;;10.50;9.47;;;5.80;99.90;;;;;;5034063;28;20212;-68
2022/11/19 13:12:45;;;;;;;9.90;8.90;;;5.70;99.90;;;;;;5032926;28;20198;-68
2022/11/19 13:15:30;;;;;;;10.77;9.67;;;5.70;99.90;;;;;;5050220;23;20751;-66
2022/11/19 13:18:00;;;;;;;11.33;9.50;;;5.60;99.90;;;;;;5030021;28;20179;-66
2022/11/19 13:20:44;;;;;;;15.57;10.13;;;5.70;99.90;;;;;;5014809;28;20179;-66
2022/11/19 13:23:23;;;;;;;10.20;9.23;;;5.70;99.90;;;;;;5014284;28;20528;-66
2022/11/19 13:25:59;;;;;;;8.97;8.27;;;5.70;99.90;;;;;;5014113;28;20271;-67
2022/11/19 13:28:42;;;;;;;9.07;8.17;;;5.60;99.90;;;;;;5014500;28;20176;-67
2022/11/19 13:31:20;;;;;;;10.07;8.40;;;5.50;99.90;;;;;;5020498;28;20595;-67